• Join FlightAware (Why Join?)
  • Login
  • US Flag 
07:19PM EDT


 

Airport Tracker/Info


-or-


 

Live Flight TrackerFlight Track Log ✈ N137TK ✈ 21-Aug-2013 ✈ KMFV - KFMY

Flight Track Log - Related Links

Times and Time Zones

All times are in EDT time to prevent confusion due to time zone crossing. See the N137TK flight status page for this flight to view local times or setup timezone preferences in your user account.

Time Position Orientation Groundspeed Altitude Reporting Facility
EDT Latitude Longitude Course Direction KTS MPH feet Rate Location/Type
02:43PM 37.5847 -75.8067 225° Southwest 149 171 2,900  Level Washington Center
02:43PM 37.5661 -75.8303 225° Southwest 154 177 3,900 1,680 Climbing Washington Center
02:44PM 37.5367 -75.8617 220° Southwest 165 190 5,400 1,860 Climbing Washington Center
02:45PM 37.4886 -75.8825 199° South 183 211 7,300 1,800 Climbing Washington Center
02:46PM 37.4447 -75.9058 203° Southwest 169 194 9,100 1,620 Climbing Washington Center
02:47PM 37.3989 -75.9317 204° Southwest 183 211 10,600 1,500 Climbing Washington Center
02:48PM 37.3508 -75.9575 203° Southwest 185 213 12,200 1,500 Climbing Washington Center
02:49PM 37.3008 -75.9836 203° Southwest 191 220 13,700 1,380 Climbing Washington Center
02:50PM 37.2442 -76.0144 203° Southwest 197 227 15,200 1,260 Climbing Washington Center
02:51PM 37.1942 -76.0428 204° Southwest 195 224 16,500 1,260 Climbing Washington Center
02:52PM 37.1439 -76.0661 200° South 193 222 17,800 1,140 Climbing Washington Center
02:53PM 37.0939 -76.0944 204° Southwest 187 215 18,900 1,080 Climbing Washington Center
02:54PM 37.0478 -76.1203 204° Southwest 184 212 20,000 1,080 Climbing Washington Center
02:55PM 37.0017 -76.1458 204° Southwest 184 212 21,100 1,080 Climbing Washington Center
02:56PM 36.9558 -76.1689 202° Southwest 178 205 22,200 900 Climbing Washington Center
02:57PM 36.9097 -76.1972 206° Southwest 177 204 23,000 360 Climbing Washington Center
02:58PM 36.8617 -76.2358 213° Southwest 218 251 23,000  Level Washington Center
02:59PM 36.8069 -76.2819 214° Southwest 253 291 23,000  Level Washington Center
03:00PM 36.7506 -76.3308 215° Southwest 234 269 23,000  Level Washington Center
03:01PM 36.6981 -76.3794 217° Southwest 245 282 23,000  Level Washington Center
03:02PM 36.6392 -76.4333 216° Southwest 246 283 23,000  Level Washington Center
03:03PM 36.5847 -76.4817 215° Southwest 248 285 23,000  Level Washington Center
03:05PM 36.5089 -76.5481 215° Southwest 257 296 23,000 120 Level Washington Center
03:06PM 36.4544 -76.5992 217° Southwest 257 296 23,400 420 Climbing Washington Center
03:07PM 36.4058 -76.6450 217° Southwest 244 281 23,900 480 Climbing Washington Center
03:08PM 36.3533 -76.6881 213° Southwest 239 275 24,400 480 Climbing Washington Center
03:09PM 36.3050 -76.7311 216° Southwest 233 268 24,900 420 Climbing Washington Center
03:10PM 36.2567 -76.7742 216° Southwest 222 255 25,400 480 Climbing Washington Center
03:11PM 36.1978 -76.8275 216° Southwest 222 255 26,000 240 Climbing Washington Center
03:12PM 36.1492 -76.8706 216° Southwest 227 261 26,000  Level Washington Center
03:13PM 36.0967 -76.9183 216° Southwest 232 267 26,000  Level Washington Center
03:14PM 36.0397 -76.9636 213° Southwest 232 267 26,000  Level Washington Center
03:15PM 35.9869 -77.0167 219° Southwest 238 274 26,000  Level Washington Center
03:16PM 35.9281 -77.0644 213° Southwest 244 281 26,000  Level Washington Center
03:17PM 35.8753 -77.1122 216° Southwest 244 281 26,000  Level Washington Center
03:18PM 35.8286 -77.1572 218° Southwest 239 275 26,000  Level Washington Center
03:19PM 35.7758 -77.2125 220° Southwest 239 275 26,000  Level Washington Center
03:20PM 35.7228 -77.2653 219° Southwest 244 281 26,000  Level Washington Center
03:21PM 35.6700 -77.3178 219° Southwest 244 281 26,000  Level Washington Center
03:22PM 35.6192 -77.3706 220° Southwest 244 281 26,000  Level Washington Center
03:23PM 35.5661 -77.4253 220° Southwest 244 281 26,000  Level Washington Center
03:24PM 35.5153 -77.4753 219° Southwest 244 281 26,000  Level Washington Center
03:25PM 35.4622 -77.5300 220° Southwest 244 281 26,000  Level Washington Center
03:26PM 35.4092 -77.5825 219° Southwest 244 281 26,000  Level Washington Center
03:27PM 35.3561 -77.6344 219° Southwest 244 281 26,000  Level Washington Center
03:28PM 35.3031 -77.6892 220° Southwest 250 288 26,000  Level Washington Center
03:29PM 35.2458 -77.7486 220° Southwest 250 288 26,000  Level Washington Center
03:30PM 35.1925 -77.8006 219° Southwest 250 288 26,000  Level Washington Center
03:31PM 35.1394 -77.8550 220° Southwest 250 288 26,000  Level Washington Center
03:32PM 35.0861 -77.9094 220° Southwest 255 293 26,000  Level Washington Center
03:33PM 35.0331 -77.9636 220° Southwest 255 293 26,000  Level Washington Center
03:34PM 34.9778 -78.0178 219° Southwest 255 293 26,000  Level Washington Center
03:35PM 34.9244 -78.0694 218° Southwest 255 293 26,000  Level Washington Center
03:36PM 34.8711 -78.1236 220° Southwest 255 293 26,000  Level Washington Center
03:37PM 34.8178 -78.1775 220° Southwest 255 293 26,000  Level Washington Center
03:38PM 34.7664 -78.2339 222° Southwest 255 293 26,000  Level Washington Center
03:39PM 34.7153 -78.2881 221° Southwest 255 293 26,000  Level Washington Center
03:40PM 34.6619 -78.3417 220° Southwest 255 293 26,000  Level Washington Center
03:41PM 34.6064 -78.3928 217° Southwest 255 293 26,000  Level Washington Center
03:42PM 34.5325 -78.4594 217° Southwest 240 276 26,000  Level Jacksonville Center
03:43PM 34.4761 -78.5203 222° Southwest 245 282 26,000  Level Jacksonville Center
03:44PM 34.4217 -78.5758 220° Southwest 250 288 26,000  Level Jacksonville Center
03:45PM 34.3692 -78.6261 218° Southwest 250 288 26,000  Level Jacksonville Center
03:46PM 34.3167 -78.6767 219° Southwest 250 288 26,000  Level Jacksonville Center
03:47PM 34.2661 -78.7242 218° Southwest 259 298 26,000  Level Jacksonville Center
03:48PM 34.2136 -78.7769 220° Southwest 259 298 26,000  Level Jacksonville Center
03:49PM 34.1611 -78.8272 218° Southwest 254 292 26,000  Level Jacksonville Center
03:50PM 34.1064 -78.8800 219° Southwest 254 292 26,000  Level Jacksonville Center
03:51PM 34.0517 -78.9325 218° Southwest 254 292 26,000  Level Jacksonville Center
03:52PM 33.9992 -78.9850 220° Southwest 254 292 26,000  Level Jacksonville Center
03:53PM 33.9464 -79.0375 220° Southwest 254 292 26,000  Level Jacksonville Center
03:54PM 33.8917 -79.0875 217° Southwest 254 292 26,000  Level Jacksonville Center
03:55PM 33.8369 -79.1397 218° Southwest 254 292 26,000  Level Jacksonville Center
03:56PM 33.7822 -79.1919 218° Southwest 254 292 26,000  Level Jacksonville Center
03:57PM 33.7294 -79.2417 218° Southwest 254 292 26,000  Level Jacksonville Center
03:58PM 33.6806 -79.2911 220° Southwest 248 285 26,000  Level Jacksonville Center
03:59PM 33.6278 -79.3431 219° Southwest 248 285 26,000  Level Jacksonville Center
04:00PM 33.5731 -79.3953 218° Southwest 253 291 26,000  Level Jacksonville Center
04:01PM 33.5200 -79.4447 218° Southwest 253 291 26,000  Level Jacksonville Center
04:02PM 33.4653 -79.4992 220° Southwest 253 291 26,000  Level Jacksonville Center
04:03PM 33.4122 -79.5483 218° Southwest 253 291 26,000  Level Jacksonville Center
04:04PM 33.3572 -79.6000 218° Southwest 253 291 26,000  Level Jacksonville Center
04:05PM 33.3025 -79.6544 220° Southwest 253 291 26,000  Level Jacksonville Center
04:06PM 33.2453 -79.7061 217° Southwest 253 291 26,000  Level Jacksonville Center
04:07PM 33.1903 -79.7578 218° Southwest 253 291 26,000  Level Jacksonville Center
04:08PM 33.1353 -79.8117 219° Southwest 253 291 26,000  Level Jacksonville Center
04:09PM 33.0781 -79.8633 217° Southwest 253 291 26,000  Level Jacksonville Center
04:10PM 33.0231 -79.9172 219° Southwest 253 291 26,000  Level Jacksonville Center
04:11PM 32.9656 -79.9686 217° Southwest 253 291 26,000  Level Jacksonville Center
04:12PM 32.9083 -80.0200 217° Southwest 259 298 26,000  Level Jacksonville Center
04:13PM 32.8511 -80.0661 214° Southwest 259 298 26,000  Level Jacksonville Center
04:14PM 32.7894 -80.1150 214° Southwest 264 304 26,000  Level Jacksonville Center
04:15PM 32.7278 -80.1589 211° Southwest 264 304 26,000  Level Jacksonville Center
04:16PM 32.6661 -80.2053 212° Southwest 264 304 26,000  Level Jacksonville Center
04:17PM 32.6044 -80.2514 212° Southwest 264 304 26,000  Level Jacksonville Center
04:18PM 32.5428 -80.2975 212° Southwest 264 304 26,000  Level Jacksonville Center
04:19PM 32.4811 -80.3436 212° Southwest 269 310 26,000  Level Jacksonville Center
04:20PM 32.4175 -80.3897 211° Southwest 274 315 26,000  Level Jacksonville Center
04:21PM 32.3536 -80.4333 210° Southwest 274 315 26,000  Level Jacksonville Center
04:22PM 32.2897 -80.4817 213° Southwest 274 315 26,000  Level Jacksonville Center
04:23PM 32.2281 -80.5275 212° Southwest 274 315 26,000  Level Jacksonville Center
04:24PM 32.1553 -80.5442 191° South 268 308 26,000  Level Jacksonville Center
04:25PM 32.0803 -80.5633 192° South 256 295 26,000  Level Jacksonville Center
04:26PM 32.0139 -80.5772 190° South 271 312 26,000  Level Jacksonville Center
04:27PM 31.9328 -80.5914 188° South 278 320 26,000  Level Jacksonville Center
04:28PM 31.8661 -80.6028 188° South 272 313 26,000  Level Jacksonville Center
04:29PM 31.7850 -80.6147 187° South 272 313 26,000  Level Jacksonville Center
04:30PM 31.7097 -80.6142 180° South 272 313 26,000  Level Jacksonville Center
04:31PM 31.6428 -80.6133 179° South 272 313 26,000  Level Jacksonville Center
04:32PM 31.5636 -80.6128 180° South 278 320 26,000  Level Jacksonville Center
04:33PM 31.4906 -80.6147 181° South 278 320 26,000  Level Jacksonville Center
04:35PM 31.4149 -80.6094 177° South  Level FlightAware Approximate
04:35PM 31.3336 -80.6039 177° South 272 313 26,000  Level Jacksonville Center
04:36PM 31.2586 -80.6008 178° South 272 313 26,000  Level Jacksonville Center
04:37PM 31.1833 -80.5978 178° South 277 319 26,000  Level Jacksonville Center
04:38PM 31.1122 -80.5994 181° South 265 305 26,000  Level Jacksonville Center
04:39PM 31.0328 -80.5942 177° South 276 318 26,000  Level Jacksonville Center
04:40PM 30.9492 -80.5889 177° South 276 318 26,000  Level Jacksonville Center
04:41PM 30.8742 -80.5883 180° South 271 312 26,000  Level Jacksonville Center
04:42PM 30.7989 -80.5878 180° South 276 318 26,000  Level Jacksonville Center
04:43PM 30.7236 -80.5822 176° South 276 318 26,000  Level Jacksonville Center
04:44PM 30.6464 -80.5819 180° South 276 318 26,000  Level Jacksonville Center
04:45PM 30.5692 -80.5789 178° South 271 312 26,000  Level Jacksonville Center
04:46PM 30.4981 -80.5783 180° South 271 312 26,000  Level Jacksonville Center
04:47PM 30.4186 -80.5753 178° South 271 312 26,000  Level Jacksonville Center
04:48PM 30.3456 -80.5747 180° South 271 312 26,000  Level Jacksonville Center
04:49PM 30.2747 -80.5717 178° South 266 306 26,000  Level Jacksonville Center
04:50PM 30.1994 -80.5686 178° South 266 306 26,000  Level Jacksonville Center
04:51PM 30.1283 -80.5656 178° South 272 313 26,000  Level Jacksonville Center
04:52PM 30.0531 -80.5625 178° South 272 313 26,000  Level Jacksonville Center
04:53PM 29.9800 -80.5619 180° South 272 313 26,000  Level Jacksonville Center
04:54PM 29.9050 -80.5614 180° South 272 313 26,000  Level Jacksonville Center
04:55PM 29.8317 -80.5558 176° South 272 313 26,000  Level Jacksonville Center
04:56PM 29.7567 -80.5553 180° South 272 313 26,000  Level Jacksonville Center
04:57PM 29.6814 -80.5547 180° South 272 313 26,000  Level Jacksonville Center
04:58PM 29.6083 -80.5517 178° South 267 307 26,000  Level Jacksonville Center
04:59PM 29.5331 -80.5511 180° South 267 307 26,000  Level Jacksonville Center
05:00PM 29.4642 -80.5481 178° South 267 307 26,000  Level Jacksonville Center
05:01PM 29.3931 -80.5450 178° South 267 307 26,000  Level Jacksonville Center
05:02PM 29.3200 -80.5419 178° South 267 307 26,000  Level Jacksonville Center
05:03PM 29.2450 -80.5389 178° South 267 307 26,000  Level Jacksonville Center
05:04PM 29.1717 -80.5358 178° South 267 307 26,000  Level Jacksonville Center
05:05PM 29.0986 -80.5328 178° South 273 314 26,000  Level Jacksonville Center
05:07PM 29.0153 -80.5325 180° South 273 314 26,000  Level Miami Center
05:08PM 28.9403 -80.5300 178° South 273 314 26,000  Level Miami Center
05:09PM 28.8692 -80.5278 178° South 268 308 26,000  Level Miami Center
05:10PM 28.8025 -80.5256 178° South 266 306 26,000  Level Miami Center
05:11PM 28.7192 -80.5228 178° South 266 306 26,000 -60 Level Miami Center
05:12PM 28.6464 -80.5203 178° South 266 306 25,900 -600 Descending Miami Center
05:13PM 28.5669 -80.5200 180° South 278 320 24,800 -960 Descending Miami Center
05:14PM 28.4942 -80.5153 177° South 289 333 24,000 -600 Descending Miami Center
05:15PM 28.4147 -80.5128 178° South 294 338 23,600 -540 Descending Miami Center
05:16PM 28.3314 -80.5100 178° South 289 333 23,000 -600 Descending Miami Center
05:17PM 28.2542 -80.5075 178° South 289 333 22,400 -540 Descending Miami Center
05:18PM 28.1667 -80.5047 178° South 289 333 22,000 -240 Descending Miami Center
05:19PM 28.0997 -80.5144 187° South 289 333 22,000 -120 Level Miami Center
05:20PM 28.0322 -80.5428 200° South 276 318 21,800 -360 Descending Miami Center
05:21PM 27.9625 -80.5758 203° Southwest 271 312 21,300 -540 Descending Miami Center
05:22PM 27.8906 -80.6111 203° Southwest 276 318 20,800 -600 Descending Miami Center
05:23PM 27.8081 -80.6506 203° Southwest 281 323 20,200 -660 Descending Miami Center
05:24PM 27.7364 -80.6833 202° Southwest 281 323 19,500 -780 Descending Miami Center
05:25PM 27.6622 -80.7183 203° Southwest 281 323 18,700 -840 Descending Miami Center
05:26PM 27.5925 -80.7489 201° Southwest 275 316 17,900 -840 Descending Miami Center
05:27PM 27.5142 -80.7906 205° Southwest 276 318 17,100 -900 Descending Miami Center
05:28PM 27.4403 -80.8231 201° Southwest 295 339 16,100 -1,020 Descending Miami Center
05:29PM 27.3683 -80.8558 202° Southwest 295 339 15,100 -900 Descending Miami Center
05:30PM 27.3153 -80.8842 205° Southwest 290 334 14,300 -900 Descending Miami Center
05:31PM 27.2553 -80.9406 220° Southwest 245 282 13,400 -960 Descending Miami Center
05:32PM 27.2081 -80.9903 223° Southwest 240 276 12,400 -1,140 Descending Miami Center
05:33PM 27.1542 -81.0492 224° Southwest 254 292 11,200 -1,320 Descending Miami Center
05:34PM 27.1003 -81.1031 222° Southwest 282 325 9,800 -1,380 Descending Miami Center
05:35PM 27.0422 -81.1664 224° Southwest 282 325 8,500 -1,500 Descending Miami Center
05:36PM 26.9817 -81.2317 224° Southwest 282 325 6,900 -1,260 Descending Miami Center
05:37PM 26.9256 -81.2925 224° Southwest 282 325 6,000 -480 Descending Miami Center
05:38PM 26.8717 -81.3461 222° Southwest 270 311 6,000 -180 Level Miami Center
05:39PM 26.8361 -81.4169 241° Southwest 270 311 5,700 -420 Descending Miami Center
05:40PM 26.8044 -81.4947 245° Southwest 270 311 5,200 -540 Descending Miami Center
05:41PM 26.7708 -81.5703 244° Southwest 275 316 4,700 -720 Descending Miami Center
05:42PM 26.7392 -81.6411 243° Southwest 270 311 3,800 -960 Descending Miami Center
05:43PM 26.7119 -81.7075 245° Southwest 270 311 2,800 -1,020 Descending Miami Center
05:44PM 26.6803 -81.7781 243° Southwest 252 290 1,800 -660 Descending Miami Center
05:45PM 26.6533 -81.8375 243° Southwest 236 272 1,500 -300 Descending Miami Center
05:46PM 26.5833 -81.8500 246° West  Level FlightAware Approximate
05:53PM 26.5866 -81.8633 246° West  Level Estimated
05:54PM 26.5866 -81.8633 246° West  Level Estimated
05:55PM 26.5866 -81.8633 246° West  Level Estimated
05:56PM 26.5866 -81.8633 246° West  Level Estimated